Time;durP1;ratioP1;P1;durP2;ratioP2;P2;SDS_P1;SDS_P2;PMS_P1;PMS_P2;Temp;Humidity;BMP_temperature;BMP_pressure;BME280_temperature;BME280_humidity;BME280_pressure;Samples;Min_cycle;Max_cycle;Signal;HPM_P1;HPM_P2
2024/03/27 00:02:08;;;;;;;13.10;8.50;;;;;;;6.44;62.18;98763.58;131318;1250;108720;-82
2024/03/27 00:05:14;;;;;;;12.30;8.10;;;;;;;6.42;62.49;98762.55;131380;1250;107861;-83
2024/03/27 00:08:19;;;;;;;13.30;8.00;;;;;;;6.39;62.58;98762.88;131404;1248;108753;-81
2024/03/27 00:11:27;;;;;;;13.30;8.40;;;;;;;6.36;62.61;98760.42;131318;1252;108544;-82
2024/03/27 00:14:33;;;;;;;12.50;8.10;;;;;;;6.31;62.45;98755.64;131338;1252;107589;-82
2024/03/27 00:17:38;;;;;;;13.10;8.60;;;;;;;6.29;62.58;98755.67;131293;1250;108579;-82
2024/03/27 00:20:43;;;;;;;14.50;8.10;;;;;;;6.25;62.49;98751.98;131375;1252;107824;-83
2024/03/27 00:23:49;;;;;;;13.20;8.40;;;;;;;6.23;62.75;98744.77;131390;1250;107561;-82
2024/03/27 00:26:54;;;;;;;12.80;8.80;;;;;;;6.21;62.51;98746.27;131413;1252;106843;-82
2024/03/27 00:29:59;;;;;;;14.10;9.20;;;;;;;6.18;62.86;98740.92;131364;1252;107343;-82
2024/03/27 00:33:07;;;;;;;14.90;8.60;;;;;;;6.16;62.62;98739.72;131570;1252;108441;-82
2024/03/27 00:36:12;;;;;;;13.00;8.10;;;;;;;6.16;62.69;98740.14;131576;1261;107064;-82
2024/03/27 00:39:18;;;;;;;13.20;8.50;;;;;;;6.15;62.66;98735.65;131352;1250;108535;-81
2024/03/27 00:42:24;;;;;;;13.20;7.70;;;;;;;6.14;62.72;98732.37;131302;1250;107695;-81
2024/03/27 00:45:30;;;;;;;12.60;7.70;;;;;;;6.16;62.91;98727.14;131290;1252;107717;-82
2024/03/27 00:48:35;;;;;;;13.50;7.70;;;;;;;6.21;62.70;98723.14;131455;1252;107019;-82
2024/03/27 00:51:41;;;;;;;16.60;8.10;;;;;;;6.27;62.94;98709.55;131269;1250;107567;-81
2024/03/27 00:54:46;;;;;;;11.20;7.10;;;;;;;6.34;62.91;98698.43;131384;1252;107870;-82
2024/03/27 00:57:51;;;;;;;13.10;7.60;;;;;;;6.40;62.92;98703.70;131326;1250;108545;-82
2024/03/27 01:00:57;;;;;;;11.40;7.60;;;;;;;6.45;62.87;98702.18;131391;1253;107504;-81
2024/03/27 01:04:02;;;;;;;10.10;7.10;;;;;;;6.51;62.92;98701.05;131468;1261;108711;-81
2024/03/27 01:07:08;;;;;;;13.50;7.60;;;;;;;6.57;63.06;98691.89;131369;1252;108479;-81
2024/03/27 01:10:14;;;;;;;11.80;6.60;;;;;;;6.62;62.71;98689.56;131373;1252;108103;-82
2024/03/27 01:13:19;;;;;;;12.70;7.90;;;;;;;6.68;62.78;98683.86;131556;1252;107277;-81
2024/03/27 01:16:28;;;;;;;11.30;7.20;;;;;;;6.73;62.87;98683.33;131338;1250;107796;-82
2024/03/27 01:19:34;;;;;;;11.20;7.40;;;;;;;6.76;62.59;98673.95;131347;1252;106496;-82
2024/03/27 01:22:39;;;;;;;11.00;7.10;;;;;;;6.79;62.63;98670.63;131401;1250;106605;-81
2024/03/27 01:25:44;;;;;;;11.50;7.30;;;;;;;6.82;62.56;98670.69;131367;1249;106657;-81
2024/03/27 01:28:50;;;;;;;12.40;7.10;;;;;;;6.84;62.54;98669.35;131313;1253;106559;-81
2024/03/27 01:31:55;;;;;;;13.90;7.60;;;;;;;6.86;62.31;98671.26;131304;1252;106808;-82
2024/03/27 01:35:00;;;;;;;10.50;6.90;;;;;;;6.87;62.19;98663.12;131337;1252;105470;-82
2024/03/27 01:38:06;;;;;;;11.00;7.80;;;;;;;6.91;62.47;98666.88;131293;1250;108740;-82
2024/03/27 01:41:11;;;;;;;10.20;6.90;;;;;;;6.92;62.14;98665.30;131310;1264;107493;-81
2024/03/27 01:44:20;;;;;;;11.40;7.40;;;;;;;6.93;62.13;98671.20;131380;1248;108234;-81
2024/03/27 01:47:25;;;;;;;12.40;7.50;;;;;;;6.94;62.05;98670.40;131381;1252;107475;-82
2024/03/27 01:50:31;;;;;;;11.00;6.80;;;;;;;6.95;61.98;98665.00;131394;1250;106513;-81
2024/03/27 01:53:37;;;;;;;11.80;7.10;;;;;;;6.95;61.93;98656.81;131279;1253;105964;-82
2024/03/27 01:56:43;;;;;;;12.00;7.20;;;;;;;6.95;61.99;98654.03;131337;1255;106373;-81
2024/03/27 01:59:49;;;;;;;11.80;7.50;;;;;;;6.95;61.95;98656.65;131295;1248;107541;-82
2024/03/27 02:02:55;;;;;;;12.40;7.40;;;;;;;6.96;62.02;98650.23;131371;1252;107069;-82
2024/03/27 02:06:00;;;;;;;11.10;6.90;;;;;;;6.97;62.01;98652.16;131312;1252;106712;-82
2024/03/27 02:09:05;;;;;;;10.70;7.10;;;;;;;6.99;62.04;98653.59;131343;1248;106662;-81
2024/03/27 02:12:11;;;;;;;11.40;7.10;;;;;;;7.00;62.24;98649.61;131471;1251;109069;-81
2024/03/27 02:15:16;;;;;;;11.80;7.50;;;;;;;7.00;61.94;98642.98;131354;1254;109070;-81
2024/03/27 02:18:21;;;;;;;11.30;7.20;;;;;;;7.01;61.79;98642.55;131320;1252;106428;-81
2024/03/27 02:21:27;;;;;;;11.80;7.60;;;;;;;7.01;61.97;98642.38;131324;1248;108370;-81
2024/03/27 02:24:38;;;;;;;13.20;7.80;;;;;;;6.99;61.89;98643.55;131322;1257;106973;-81
2024/03/27 02:27:44;;;;;;;10.20;7.00;;;;;;;6.97;62.19;98640.34;131359;1248;106445;-82
2024/03/27 02:30:49;;;;;;;11.00;7.20;;;;;;;6.95;61.84;98632.75;131487;1252;108669;-82
2024/03/27 02:33:54;;;;;;;11.00;7.30;;;;;;;6.92;62.15;98630.64;131342;1261;107211;-81
2024/03/27 02:37:00;;;;;;;10.90;7.40;;;;;;;6.87;62.04;98627.44;131359;1265;108932;-81
2024/03/27 02:40:06;;;;;;;12.30;7.80;;;;;;;6.84;62.17;98622.36;131505;1253;107690;-82
2024/03/27 02:43:11;;;;;;;10.80;7.30;;;;;;;6.78;62.31;98617.51;131537;1254;106349;-82
2024/03/27 02:46:17;;;;;;;13.40;8.30;;;;;;;6.73;62.60;98611.92;131704;1253;107693;-81
2024/03/27 02:49:22;;;;;;;11.70;7.80;;;;;;;6.68;62.52;98612.79;131424;1255;107531;-81
2024/03/27 02:52:27;;;;;;;11.80;8.00;;;;;;;6.61;62.65;98608.63;131321;1253;107880;-81
2024/03/27 02:55:32;;;;;;;13.50;8.50;;;;;;;6.57;62.49;98603.36;131456;1256;107619;-81
2024/03/27 02:58:38;;;;;;;12.20;8.00;;;;;;;6.55;62.89;98601.48;131432;1252;107641;-82
2024/03/27 03:01:43;;;;;;;11.50;7.80;;;;;;;6.54;62.81;98600.80;131491;1253;107851;-81
2024/03/27 03:04:48;;;;;;;12.00;8.10;;;;;;;6.49;62.79;98601.39;131363;1248;105459;-81
2024/03/27 03:07:53;;;;;;;13.70;8.50;;;;;;;6.45;62.85;98600.98;131402;1248;106583;-81
2024/03/27 03:10:59;;;;;;;12.40;8.20;;;;;;;6.43;62.82;98601.77;131498;1261;105483;-81
2024/03/27 03:14:04;;;;;;;11.50;7.70;;;;;;;6.39;63.09;98594.05;131527;1253;108701;-81
2024/03/27 03:17:10;;;;;;;11.90;8.00;;;;;;;6.37;63.04;98588.83;131350;1256;108661;-82
2024/03/27 03:20:15;;;;;;;13.30;7.50;;;;;;;6.33;63.25;98582.13;131276;1253;107585;-81
2024/03/27 03:23:21;;;;;;;12.70;7.90;;;;;;;6.29;63.32;98576.77;131323;1254;108628;-81
2024/03/27 03:26:26;;;;;;;11.40;8.00;;;;;;;6.26;63.26;98571.02;131665;1248;107587;-81
2024/03/27 03:29:31;;;;;;;11.10;7.50;;;;;;;6.25;63.39;98558.83;131490;1252;106481;-81
2024/03/27 03:32:37;;;;;;;13.40;8.10;;;;;;;6.23;63.67;98552.44;131359;1253;108101;-81
2024/03/27 03:35:42;;;;;;;11.10;7.50;;;;;;;6.21;63.67;98556.02;131387;1253;106810;-81
2024/03/27 03:38:47;;;;;;;14.00;7.80;;;;;;;6.21;63.81;98558.05;131562;1248;108510;-82
2024/03/27 03:41:52;;;;;;;12.80;7.70;;;;;;;6.19;63.68;98557.52;131828;1253;107623;-86
2024/03/27 03:44:58;;;;;;;12.30;7.90;;;;;;;6.17;63.77;98552.85;131491;1252;106816;-86
2024/03/27 03:48:03;;;;;;;11.60;7.40;;;;;;;6.16;64.08;98555.40;131737;1253;106664;-84
2024/03/27 03:51:08;;;;;;;11.90;7.30;;;;;;;6.16;63.93;98552.91;131773;1248;107051;-84
2024/03/27 03:54:13;;;;;;;11.70;7.40;;;;;;;6.16;64.17;98551.52;131782;1253;108773;-83
2024/03/27 03:57:19;;;;;;;11.30;7.50;;;;;;;6.14;64.11;98548.23;131779;1250;108147;-84
2024/03/27 04:00:24;;;;;;;11.00;7.10;;;;;;;6.12;64.01;98550.92;131294;1253;108449;-84
2024/03/27 04:03:30;;;;;;;10.60;7.30;;;;;;;6.09;64.39;98549.81;131374;1248;107519;-83
2024/03/27 04:06:35;;;;;;;13.00;7.70;;;;;;;6.07;64.52;98545.48;131338;1248;107784;-83
2024/03/27 04:09:41;;;;;;;14.20;7.70;;;;;;;6.06;64.60;98536.40;131338;1255;108773;-83
2024/03/27 04:12:46;;;;;;;12.00;7.30;;;;;;;6.02;64.90;98536.73;131351;1253;106835;-83
2024/03/27 04:15:52;;;;;;;12.60;7.20;;;;;;;6.01;65.02;98535.02;131511;1261;108270;-83
2024/03/27 04:18:57;;;;;;;11.10;7.40;;;;;;;5.99;64.79;98531.34;131535;1249;108466;-83
2024/03/27 04:22:03;;;;;;;11.50;7.40;;;;;;;5.97;65.13;98524.77;131598;1254;106855;-83
2024/03/27 04:25:09;;;;;;;11.10;7.40;;;;;;;5.97;65.15;98522.85;131392;1252;108748;-83
2024/03/27 04:28:14;;;;;;;13.10;6.90;;;;;;;5.97;65.08;98516.73;131423;1254;108582;-84
2024/03/27 04:31:20;;;;;;;14.50;7.30;;;;;;;5.97;65.11;98517.23;131534;1253;107878;-83
2024/03/27 04:34:25;;;;;;;10.80;6.80;;;;;;;5.98;65.31;98515.70;131351;1258;106550;-83
2024/03/27 04:37:30;;;;;;;10.00;6.20;;;;;;;6.01;65.09;98516.09;131365;1253;107463;-83
2024/03/27 04:40:36;;;;;;;10.40;6.60;;;;;;;6.08;65.15;98505.92;131399;1252;107672;-83
2024/03/27 04:43:41;;;;;;;14.20;9.50;;;;;;;6.18;65.31;98505.02;131403;1248;107460;-83
2024/03/27 04:46:47;;;;;;;11.80;7.20;;;;;;;6.29;65.36;98499.23;131373;1254;107493;-83
2024/03/27 04:49:52;;;;;;;19.80;11.60;;;;;;;6.38;65.45;98498.65;131189;1253;160026;-83
2024/03/27 04:52:57;;;;;;;22.20;13.10;;;;;;;6.45;65.30;98499.95;131388;1253;108818;-83
2024/03/27 04:56:03;;;;;;;11.80;8.40;;;;;;;6.49;65.35;98502.45;131403;1253;106430;-83
2024/03/27 04:59:09;;;;;;;12.80;9.00;;;;;;;6.52;65.00;98499.20;131521;1254;106410;-85
2024/03/27 05:02:14;;;;;;;15.20;10.60;;;;;;;6.53;65.48;98495.00;131414;1256;106702;-83
2024/03/27 05:05:20;;;;;;;23.40;12.60;;;;;;;6.54;65.07;98497.70;131595;1248;108827;-83
2024/03/27 05:08:25;;;;;;;14.40;8.50;;;;;;;6.56;65.45;98494.09;131648;1248;108430;-83
2024/03/27 05:11:30;;;;;;;16.80;8.30;;;;;;;6.59;65.55;98494.85;131627;1254;108812;-83
2024/03/27 05:14:36;;;;;;;24.90;12.50;;;;;;;6.64;65.46;98495.59;131474;1254;107186;-83
2024/03/27 05:17:42;;;;;;;16.60;9.20;;;;;;;6.67;65.33;98494.98;131559;1253;106853;-83
2024/03/27 05:20:47;;;;;;;11.60;7.70;;;;;;;6.72;65.54;98496.66;131533;1248;108590;-83
2024/03/27 05:23:52;;;;;;;14.70;7.90;;;;;;;6.71;65.60;98490.52;131523;1248;107932;-83
2024/03/27 05:26:57;;;;;;;9.80;7.10;;;;;;;6.71;65.43;98481.69;131572;1254;108499;-83
2024/03/27 05:30:03;;;;;;;15.10;9.20;;;;;;;6.76;65.45;98481.50;131512;1248;108779;-83
2024/03/27 05:33:08;;;;;;;12.50;8.10;;;;;;;6.82;65.38;98483.16;131408;1254;107517;-83
2024/03/27 05:36:13;;;;;;;15.00;9.50;;;;;;;6.91;65.47;98478.95;131403;1248;106841;-83
2024/03/27 05:39:19;;;;;;;14.30;8.90;;;;;;;7.00;65.48;98481.64;131308;1253;106869;-83
2024/03/27 05:42:24;;;;;;;14.00;9.10;;;;;;;7.10;65.19;98484.17;131338;1255;107090;-83
2024/03/27 05:45:29;;;;;;;14.40;9.50;;;;;;;7.19;65.29;98485.90;131451;1253;106447;-83
2024/03/27 05:48:35;;;;;;;17.90;11.40;;;;;;;7.22;64.94;98480.00;131419;1248;107511;-83
2024/03/27 05:51:41;;;;;;;12.90;9.40;;;;;;;7.21;64.71;98477.89;131246;1248;106865;-83
2024/03/27 05:54:46;;;;;;;16.00;11.20;;;;;;;7.17;65.15;98473.16;131306;1252;106221;-83
2024/03/27 05:57:51;;;;;;;10.30;7.30;;;;;;;7.19;64.75;98471.89;131461;1253;106577;-83
2024/03/27 06:00:57;;;;;;;12.00;8.50;;;;;;;7.21;64.89;98470.07;131763;1253;107867;-83
2024/03/27 06:04:02;;;;;;;12.60;8.70;;;;;;;7.23;65.00;98462.36;131850;1254;108299;-83
2024/03/27 06:07:08;;;;;;;10.60;7.90;;;;;;;7.27;65.01;98455.02;131695;1248;106336;-83
2024/03/27 06:10:13;;;;;;;12.50;8.20;;;;;;;7.30;64.82;98458.46;131906;1248;106902;-83
2024/03/27 06:13:19;;;;;;;11.20;7.80;;;;;;;7.33;64.71;98453.87;131432;1253;107648;-83
2024/03/27 06:16:24;;;;;;;12.50;8.10;;;;;;;7.36;64.74;98449.20;131204;1248;106396;-83
2024/03/27 06:19:29;;;;;;;12.70;9.80;;;;;;;7.41;64.81;98448.96;131083;1254;108797;-83
2024/03/27 06:22:34;;;;;;;12.20;8.00;;;;;;;7.44;64.52;98449.90;131193;1248;107601;-83
2024/03/27 06:25:40;;;;;;;10.40;7.20;;;;;;;7.49;64.61;98448.27;131162;1253;108273;-83
2024/03/27 06:28:45;;;;;;;10.40;6.80;;;;;;;7.54;64.53;98445.61;131176;1253;107736;-83
2024/03/27 06:31:50;;;;;;;10.00;6.80;;;;;;;7.60;64.65;98445.94;131175;1252;106965;-83
2024/03/27 06:34:55;;;;;;;10.50;7.40;;;;;;;7.67;64.35;98452.73;131208;1248;108003;-83
2024/03/27 06:38:01;;;;;;;10.60;7.30;;;;;;;7.71;64.14;98455.98;131177;1248;107859;-83
2024/03/27 06:41:07;;;;;;;10.20;7.60;;;;;;;7.77;64.38;98460.23;131122;1253;107228;-83
2024/03/27 06:44:12;;;;;;;10.40;7.50;;;;;;;7.87;64.14;98458.78;131333;1248;108268;-83
2024/03/27 06:47:19;;;;;;;9.60;7.10;;;;;;;7.98;63.93;98461.63;131338;1254;108447;-83
2024/03/27 06:50:25;;;;;;;10.30;7.10;;;;;;;8.12;63.61;98462.48;131179;1248;108118;-83
2024/03/27 06:53:30;;;;;;;10.20;6.90;;;;;;;8.25;63.56;98457.60;131456;1253;108877;-84
2024/03/27 06:56:35;;;;;;;10.60;6.80;;;;;;;8.39;63.45;98457.94;131299;1261;106946;-84
2024/03/27 06:59:40;;;;;;;9.30;7.20;;;;;;;8.57;63.42;98461.10;131236;1256;108406;-84
2024/03/27 07:02:48;;;;;;;9.10;6.50;;;;;;;8.76;63.16;98461.34;131246;1261;107719;-84
2024/03/27 07:05:54;;;;;;;7.90;6.00;;;;;;;8.97;63.23;98456.81;131180;1263;105943;-83
2024/03/27 07:08:59;;;;;;;29.30;14.80;;;;;;;9.13;63.00;98458.25;131159;1252;107825;-83
2024/03/27 07:12:05;;;;;;;10.80;6.20;;;;;;;9.28;62.64;98458.50;131236;1252;106836;-83
2024/03/27 07:15:11;;;;;;;8.90;6.40;;;;;;;9.43;62.69;98450.66;131498;1254;107845;-83
2024/03/27 07:18:16;;;;;;;8.20;5.90;;;;;;;9.59;62.64;98447.08;131227;1251;107626;-84
2024/03/27 07:21:24;;;;;;;12.10;6.00;;;;;;;9.70;62.01;98446.64;131159;1248;106253;-84
2024/03/27 07:24:29;;;;;;;7.60;5.50;;;;;;;9.78;62.13;98445.00;131213;1253;107749;-84
2024/03/27 07:27:36;;;;;;;9.40;5.60;;;;;;;9.90;61.77;98444.52;131123;1253;108705;-84
2024/03/27 07:30:41;;;;;;;7.00;5.50;;;;;;;9.96;61.46;98442.08;131155;1254;107880;-84
2024/03/27 07:33:46;;;;;;;8.10;5.40;;;;;;;9.96;61.05;98434.77;131176;1247;106382;-84
2024/03/27 07:36:52;;;;;;;8.70;5.40;;;;;;;9.95;60.54;98428.03;131300;1255;106669;-83
2024/03/27 07:39:58;;;;;;;8.40;5.10;;;;;;;9.94;60.71;98424.75;131227;1249;108574;-84
2024/03/27 07:43:03;;;;;;;7.90;5.90;;;;;;;9.96;60.57;98420.63;131613;1248;109291;-85
2024/03/27 07:46:11;;;;;;;7.50;5.70;;;;;;;9.99;60.87;98417.70;131429;1253;108729;-82
2024/03/27 07:49:16;;;;;;;8.60;5.80;;;;;;;10.03;60.72;98414.36;131288;1253;107836;-84
2024/03/27 07:52:21;;;;;;;8.30;5.80;;;;;;;10.10;60.21;98413.17;131254;1263;106786;-84
2024/03/27 07:55:27;;;;;;;7.40;5.10;;;;;;;10.12;59.67;98412.61;131223;1254;107581;-83
2024/03/27 07:58:32;;;;;;;7.70;5.90;;;;;;;10.15;59.88;98414.64;131416;1251;108431;-85
2024/03/27 08:01:38;;;;;;;7.10;5.60;;;;;;;10.21;59.71;98413.36;131518;1253;106438;-85
2024/03/27 08:04:43;;;;;;;8.00;5.20;;;;;;;10.26;59.43;98409.38;131022;1253;108408;-85
2024/03/27 08:07:48;;;;;;;7.80;5.20;;;;;;;10.31;59.19;98407.05;131062;1254;108459;-85
2024/03/27 08:11:01;;;;;;;7.20;5.00;;;;;;;10.38;59.16;98407.46;131401;1251;107515;-85
2024/03/27 08:14:08;;;;;;;8.70;4.50;;;;;;;10.44;58.76;98411.02;131249;1254;107140;-85
2024/03/27 08:17:14;;;;;;;6.30;4.50;;;;;;;10.49;58.80;98405.70;131315;1253;108816;-84
2024/03/27 08:20:19;;;;;;;9.20;5.10;;;;;;;10.55;59.05;98407.45;131147;1256;107638;-84
2024/03/27 08:23:24;;;;;;;6.10;4.50;;;;;;;10.61;58.49;98411.06;131395;1253;107674;-84
2024/03/27 08:26:29;;;;;;;6.50;4.60;;;;;;;10.67;58.69;98412.48;131106;1253;107985;-84
2024/03/27 08:29:35;;;;;;;8.30;5.10;;;;;;;10.74;58.76;98405.52;131127;1252;106871;-85
2024/03/27 08:32:40;;;;;;;6.10;4.50;;;;;;;10.82;58.68;98400.56;131126;1249;106441;-84
2024/03/27 08:35:46;;;;;;;5.70;4.60;;;;;;;10.92;58.12;98401.14;131237;1252;108394;-85
2024/03/27 08:38:51;;;;;;;7.80;4.50;;;;;;;11.02;58.13;98401.30;131199;1248;106779;-85
2024/03/27 08:41:57;;;;;;;7.70;4.80;;;;;;;11.12;57.95;98405.31;131183;1252;108547;-84
2024/03/27 08:45:04;;;;;;;6.50;4.20;;;;;;;11.21;57.81;98406.52;131337;1252;106979;-84
2024/03/27 08:48:09;;;;;;;9.50;4.20;;;;;;;11.30;57.61;98401.44;131273;1252;106502;-84
2024/03/27 08:51:14;;;;;;;7.10;4.50;;;;;;;11.38;57.37;98398.74;131151;1252;106612;-84
2024/03/27 08:54:20;;;;;;;5.80;4.40;;;;;;;11.49;57.47;98399.41;131270;1252;106291;-84
2024/03/27 08:57:25;;;;;;;7.10;4.30;;;;;;;11.57;57.02;98395.50;131226;1252;108005;-84
2024/03/27 09:00:30;;;;;;;5.60;4.30;;;;;;;11.67;57.08;98399.54;131307;1252;108772;-84
2024/03/27 09:03:36;;;;;;;6.50;4.50;;;;;;;11.76;56.63;98401.95;131372;1248;107432;-84
2024/03/27 09:06:41;;;;;;;9.50;5.90;;;;;;;11.87;57.18;98402.58;131172;1253;107673;-84
2024/03/27 09:09:46;;;;;;;8.10;4.50;;;;;;;11.99;56.82;98399.51;131141;1255;106650;-84
2024/03/27 09:12:51;;;;;;;6.50;4.20;;;;;;;12.11;56.71;98401.79;131145;1252;108603;-84
2024/03/27 09:15:58;;;;;;;6.80;4.20;;;;;;;12.23;56.35;98399.45;131158;1252;108591;-84
2024/03/27 09:19:04;;;;;;;7.10;4.20;;;;;;;12.31;55.46;98398.33;131425;1248;106569;-84
2024/03/27 09:22:09;;;;;;;5.00;3.90;;;;;;;12.42;55.28;98396.21;131298;1252;108543;-84
2024/03/27 09:25:15;;;;;;;6.90;4.20;;;;;;;12.52;55.15;98400.52;131468;1250;107324;-84
2024/03/27 09:28:20;;;;;;;5.60;4.30;;;;;;;12.60;55.08;98401.41;131425;1248;106936;-84
2024/03/27 09:31:25;;;;;;;5.60;3.80;;;;;;;12.69;55.25;98396.34;131154;1254;108842;-84
2024/03/27 09:34:32;;;;;;;5.60;4.10;;;;;;;12.78;55.07;98391.99;131137;1248;107525;-84
2024/03/27 09:37:37;;;;;;;5.50;3.80;;;;;;;12.85;55.00;98393.31;131168;1252;107649;-84
2024/03/27 09:40:44;;;;;;;6.60;4.20;;;;;;;12.94;54.67;98397.05;131061;1254;108673;-86
2024/03/27 09:43:50;;;;;;;23.90;13.40;;;;;;;13.03;54.41;98399.61;131164;1248;106980;-83
2024/03/27 09:46:59;;;;;;;8.70;5.70;;;;;;;13.12;54.93;98400.95;131200;1249;109026;-84
2024/03/27 09:50:05;;;;;;;7.30;5.70;;;;;;;13.23;54.18;98397.95;131210;1252;106461;-84
2024/03/27 09:53:11;;;;;;;8.80;5.40;;;;;;;13.30;54.24;98396.39;131372;1261;107871;-83
2024/03/27 09:56:16;;;;;;;10.60;6.80;;;;;;;13.39;54.16;98393.48;131169;1253;107417;-83
2024/03/27 09:59:22;;;;;;;5.80;4.10;;;;;;;13.45;53.68;98386.55;131175;1252;107693;-85
2024/03/27 10:02:28;;;;;;;8.90;6.50;;;;;;;13.52;53.63;98385.75;131260;1252;108742;-85
2024/03/27 10:05:34;;;;;;;8.00;5.10;;;;;;;13.59;53.59;98388.98;131361;1248;108690;-85
2024/03/27 10:08:40;;;;;;;10.10;7.40;;;;;;;13.69;53.30;98383.09;131201;1248;109706;-83
2024/03/27 10:11:46;;;;;;;7.90;5.80;;;;;;;13.74;53.45;98377.62;131213;1248;107187;-84
2024/03/27 10:14:51;;;;;;;12.00;8.50;;;;;;;13.82;53.38;98379.70;131357;1257;107017;-86
2024/03/27 10:17:57;;;;;;;8.90;6.40;;;;;;;13.89;53.22;98379.10;131438;1249;106964;-85
2024/03/27 10:21:02;;;;;;;6.40;4.90;;;;;;;13.94;52.78;98374.91;131454;1252;107047;-85
2024/03/27 10:24:09;;;;;;;6.50;4.10;;;;;;;13.97;53.03;98374.44;131272;1253;106681;-86
2024/03/27 10:27:15;;;;;;;6.30;3.60;;;;;;;14.04;53.00;98376.56;131214;1250;107853;-85
2024/03/27 10:30:22;;;;;;;5.10;3.50;;;;;;;14.08;52.92;98373.21;131524;1252;107447;-86
2024/03/27 10:33:29;;;;;;;8.10;4.40;;;;;;;14.11;52.85;98378.55;131365;1253;106870;-84
2024/03/27 10:36:36;;;;;;;5.40;4.10;;;;;;;14.16;52.55;98376.05;131290;1252;108426;-85
2024/03/27 10:39:47;;;;;;;6.50;4.00;;;;;;;14.22;52.68;98374.10;131440;1252;106941;-86
2024/03/27 10:42:58;;;;;;;5.10;4.00;;;;;;;14.29;52.29;98371.95;131426;1248;108738;-85
2024/03/27 10:46:06;;;;;;;6.10;4.10;;;;;;;14.35;52.43;98366.86;131122;1252;108703;-86
2024/03/27 10:49:12;;;;;;;5.80;4.50;;;;;;;14.41;52.51;98362.62;131158;1254;108436;-86
2024/03/27 10:52:19;;;;;;;5.50;4.10;;;;;;;14.45;51.77;98360.88;131163;1252;108742;-85
2024/03/27 10:55:24;;;;;;;6.60;3.70;;;;;;;14.53;52.27;98360.08;131248;1252;107826;-83
2024/03/27 10:58:30;;;;;;;5.30;3.40;;;;;;;14.61;51.42;98365.92;131105;1252;108751;-85
2024/03/27 11:01:39;;;;;;;5.30;3.90;;;;;;;14.65;51.63;98367.11;131236;1248;107472;-86
2024/03/27 11:04:53;;;;;;;20.30;12.90;;;;;;;14.67;51.32;98355.55;131557;1248;107555;-86
2024/03/27 11:08:00;;;;;;;11.60;5.90;;;;;;;14.71;50.84;98355.79;131382;1249;108546;-85
2024/03/27 11:11:11;;;;;;;7.90;5.60;;;;;;;14.76;51.29;98348.62;131159;1254;106695;-83
2024/03/27 11:14:21;;;;;;;6.20;4.50;;;;;;;14.83;50.70;98346.55;131298;1252;107525;-85
2024/03/27 11:17:30;;;;;;;5.60;4.00;;;;;;;14.89;51.14;98341.59;131319;1248;107741;-84
2024/03/27 11:20:35;;;;;;;5.20;4.10;;;;;;;14.96;51.17;98334.97;131235;1255;107120;-86
2024/03/27 11:23:42;;;;;;;5.00;4.20;;;;;;;15.05;51.14;98333.80;131158;1253;107557;-84
2024/03/27 11:26:47;;;;;;;6.10;4.10;;;;;;;15.13;51.28;98329.75;131351;1253;107750;-85
2024/03/27 11:29:58;;;;;;;5.60;4.40;;;;;;;15.16;50.70;98324.89;131313;1252;107712;-85
2024/03/27 11:33:03;;;;;;;6.90;4.40;;;;;;;15.19;51.15;98318.25;131474;1255;108319;-85
2024/03/27 11:36:09;;;;;;;8.50;5.50;;;;;;;15.21;50.53;98313.85;131403;1252;107479;-85
2024/03/27 11:39:15;;;;;;;8.80;4.90;;;;;;;15.23;50.94;98310.35;131269;1252;108497;-84
2024/03/27 11:42:21;;;;;;;6.30;4.20;;;;;;;15.28;50.80;98309.80;131340;1252;108759;-84
2024/03/27 11:45:28;;;;;;;9.60;4.30;;;;;;;15.35;50.51;98308.48;131128;1252;108281;-85
2024/03/27 11:48:35;;;;;;;6.60;4.00;;;;;;;15.41;50.73;98307.83;131368;1252;106766;-85
2024/03/27 11:51:40;;;;;;;6.40;3.80;;;;;;;15.50;50.09;98306.63;131192;1252;107584;-84
2024/03/27 11:54:46;;;;;;;4.90;3.60;;;;;;;15.56;50.21;98304.63;131454;1250;108332;-84
2024/03/27 11:57:51;;;;;;;5.40;4.10;;;;;;;15.63;50.34;98303.71;131455;1250;108787;-85
2024/03/27 12:00:57;;;;;;;6.50;3.80;;;;;;;15.71;49.90;98303.80;131304;1249;107802;-84
2024/03/27 12:04:03;;;;;;;6.20;3.60;;;;;;;15.82;50.44;98302.80;131280;1252;107829;-84
2024/03/27 12:07:08;;;;;;;8.00;4.10;;;;;;;15.91;49.77;98310.61;131407;1252;108452;-85
2024/03/27 12:10:15;;;;;;;5.80;4.00;;;;;;;15.97;49.64;98305.13;131156;1248;108770;-85
2024/03/27 12:13:22;;;;;;;6.70;3.90;;;;;;;16.02;49.59;98303.64;131124;1252;106821;-85
2024/03/27 12:16:28;;;;;;;4.90;3.60;;;;;;;16.05;49.79;98293.63;131160;1253;107556;-85
2024/03/27 12:19:33;;;;;;;5.30;3.40;;;;;;;16.07;49.15;98288.73;131220;1252;107646;-85
2024/03/27 12:22:39;;;;;;;5.80;3.40;;;;;;;16.10;49.56;98282.77;131241;1252;108801;-85
2024/03/27 12:25:46;;;;;;;5.30;3.60;;;;;;;16.13;49.16;98281.15;131288;1252;107224;-84
2024/03/27 12:28:54;;;;;;;5.30;3.50;;;;;;;16.12;49.01;98269.61;131212;1252;107820;-85
2024/03/27 12:32:00;;;;;;;5.20;3.50;;;;;;;16.14;49.58;98265.96;131152;1253;108738;-85
2024/03/27 12:35:06;;;;;;;8.90;3.70;;;;;;;16.17;50.00;98258.52;131189;1252;107159;-85
2024/03/27 12:38:11;;;;;;;6.80;3.30;;;;;;;16.21;49.42;98251.55;131144;1252;107680;-85
2024/03/27 12:41:16;;;;;;;5.70;3.50;;;;;;;16.22;49.17;98253.88;131361;1252;107875;-85
2024/03/27 12:44:21;;;;;;;9.70;6.60;;;;;;;16.22;48.86;98248.77;131143;1252;108805;-85
2024/03/27 12:47:27;;;;;;;8.10;4.10;;;;;;;16.24;49.05;98247.89;131225;1253;108440;-85
2024/03/27 12:50:32;;;;;;;8.10;3.80;;;;;;;16.25;49.07;98244.36;131119;1248;107851;-85
2024/03/27 12:53:37;;;;;;;4.60;3.40;;;;;;;16.27;48.51;98242.64;131078;1252;106621;-84
2024/03/27 12:56:42;;;;;;;5.50;3.20;;;;;;;16.33;48.79;98238.71;131081;1250;106090;-84
2024/03/27 12:59:48;;;;;;;5.80;3.40;;;;;;;16.35;48.74;98236.54;131295;1252;107802;-84
2024/03/27 13:02:53;;;;;;;6.30;3.50;;;;;;;16.37;48.65;98232.17;131236;1252;108432;-84
2024/03/27 13:05:58;;;;;;;7.80;3.30;;;;;;;16.40;48.83;98231.52;131179;1254;108774;-85
2024/03/27 13:09:04;;;;;;;5.40;3.50;;;;;;;16.42;48.58;98229.99;131386;1248;106858;-84
2024/03/27 13:12:09;;;;;;;5.30;3.60;;;;;;;16.42;48.31;98229.58;131164;1252;107564;-84
2024/03/27 13:15:14;;;;;;;7.50;3.60;;;;;;;16.44;47.99;98230.40;131275;1252;107681;-84
2024/03/27 13:18:20;;;;;;;6.10;3.90;;;;;;;16.44;48.51;98224.97;131537;1252;107189;-84
2024/03/27 13:21:25;;;;;;;6.40;3.70;;;;;;;16.47;48.29;98227.19;131526;1248;107505;-84
2024/03/27 13:24:30;;;;;;;8.50;3.70;;;;;;;16.54;48.85;98223.64;131557;1251;107506;-83
2024/03/27 13:27:37;;;;;;;7.00;3.40;;;;;;;16.62;48.23;98217.54;131577;1247;107348;-84
2024/03/27 13:30:43;;;;;;;8.10;4.00;;;;;;;16.61;47.79;98210.25;131503;1248;108661;-84
2024/03/27 13:33:48;;;;;;;8.30;3.70;;;;;;;16.64;48.22;98206.80;131603;1251;106483;-85
2024/03/27 13:36:53;;;;;;;11.30;5.50;;;;;;;16.68;48.22;98198.75;131619;1251;107853;-86
2024/03/27 13:39:58;;;;;;;8.00;4.70;;;;;;;16.74;48.29;98191.69;131570;1247;108850;-86
2024/03/27 13:43:04;;;;;;;7.90;4.50;;;;;;;16.81;47.80;98186.80;131513;1254;108510;-86
2024/03/27 13:46:09;;;;;;;8.80;5.50;;;;;;;16.88;48.16;98182.30;131497;1250;108763;-86
2024/03/27 13:49:15;;;;;;;7.00;5.00;;;;;;;16.96;48.35;98180.91;131523;1251;108592;-86
2024/03/27 13:52:20;;;;;;;7.20;3.60;;;;;;;17.03;47.93;98176.55;131328;1252;108581;-86
2024/03/27 13:55:26;;;;;;;5.70;3.30;;;;;;;17.11;47.67;98177.48;131216;1248;107166;-85
2024/03/27 13:58:31;;;;;;;7.00;3.60;;;;;;;17.17;48.06;98178.81;131150;1253;108634;-84
2024/03/27 14:01:36;;;;;;;5.00;3.30;;;;;;;17.21;48.03;98180.00;131382;1252;108060;-85
2024/03/27 14:04:43;;;;;;;5.20;3.20;;;;;;;17.21;47.80;98183.19;131416;1252;108689;-85
2024/03/27 14:07:49;;;;;;;6.30;4.10;;;;;;;17.20;47.72;98177.02;131456;1252;106721;-83
2024/03/27 14:10:54;;;;;;;11.10;4.90;;;;;;;17.22;48.24;98177.15;131339;1252;107856;-85
2024/03/27 14:14:02;;;;;;;7.10;3.80;;;;;;;17.22;48.00;98172.98;131531;1252;107531;-85